Terminal Aerodrome Forecast
Issued by NWS

Home | Current Version | Previous Version | Text Only | Print | Product List | Glossary On
Versions: 1 2 3 4 5 6 7 8 9 10 11 12 13 14 15 16 17
248
FTUS43 KDLH 161743
TAFBRD
TAF
KBRD 161743Z 1618/1718 16007G15KT P6SM SCT050 BKN150
     FM170300 16005KT P6SM SCT013 BKN200
     FM170600 19004KT 6SM BR SCT006 BKN012
     FM171100 20007KT P6SM SCT006=

USA.gov is the U.S. government's official web portal to all federal, state and local government web resources and services.